sensor_id;sensor_type;location;lat;lon;timestamp;P1;durP1;ratioP1;P2;durP2;ratioP2
11098;SDS011;12223;42.650;23.364;2022-11-14T00:00:32;33.13;;;28.67;;
11098;SDS011;12223;42.650;23.364;2022-11-14T00:02:59;32.93;;;26.00;;
11098;SDS011;12223;42.650;23.364;2022-11-14T00:05:27;31.57;;;25.30;;
11098;SDS011;12223;42.650;23.364;2022-11-14T00:07:55;26.37;;;20.97;;
11098;SDS011;12223;42.650;23.364;2022-11-14T00:10:22;23.33;;;19.30;;
11098;SDS011;12223;42.650;23.364;2022-11-14T00:12:49;19.97;;;16.83;;
11098;SDS011;12223;42.650;23.364;2022-11-14T00:15:16;28.77;;;24.27;;
11098;SDS011;12223;42.650;23.364;2022-11-14T00:17:43;27.23;;;21.87;;
11098;SDS011;12223;42.650;23.364;2022-11-14T00:20:10;30.10;;;21.47;;
11098;SDS011;12223;42.650;23.364;2022-11-14T00:22:38;29.47;;;26.30;;
11098;SDS011;12223;42.650;23.364;2022-11-14T00:25:06;26.83;;;20.83;;
11098;SDS011;12223;42.650;23.364;2022-11-14T00:27:35;29.13;;;22.17;;
11098;SDS011;12223;42.650;23.364;2022-11-14T00:30:02;26.87;;;21.47;;
11098;SDS011;12223;42.650;23.364;2022-11-14T00:32:29;31.90;;;26.07;;
11098;SDS011;12223;42.650;23.364;2022-11-14T00:34:56;36.13;;;28.43;;
11098;SDS011;12223;42.650;23.364;2022-11-14T00:37:23;33.97;;;24.10;;
11098;SDS011;12223;42.650;23.364;2022-11-14T00:39:51;34.03;;;25.90;;
11098;SDS011;12223;42.650;23.364;2022-11-14T00:42:19;32.47;;;26.90;;
11098;SDS011;12223;42.650;23.364;2022-11-14T00:44:46;32.50;;;24.03;;
11098;SDS011;12223;42.650;23.364;2022-11-14T00:47:12;38.83;;;32.43;;
11098;SDS011;12223;42.650;23.364;2022-11-14T00:49:39;33.60;;;25.83;;
11098;SDS011;12223;42.650;23.364;2022-11-14T00:52:06;27.50;;;24.43;;
11098;SDS011;12223;42.650;23.364;2022-11-14T00:54:33;30.00;;;26.93;;
11098;SDS011;12223;42.650;23.364;2022-11-14T00:56:59;28.03;;;22.63;;
11098;SDS011;12223;42.650;23.364;2022-11-14T00:59:28;24.27;;;20.13;;
11098;SDS011;12223;42.650;23.364;2022-11-14T01:01:54;23.27;;;20.40;;
11098;SDS011;12223;42.650;23.364;2022-11-14T01:04:21;25.53;;;21.30;;
11098;SDS011;12223;42.650;23.364;2022-11-14T01:06:48;22.50;;;18.77;;
11098;SDS011;12223;42.650;23.364;2022-11-14T01:09:15;23.00;;;17.93;;
11098;SDS011;12223;42.650;23.364;2022-11-14T01:11:41;26.40;;;19.57;;
11098;SDS011;12223;42.650;23.364;2022-11-14T01:14:08;25.47;;;19.97;;
11098;SDS011;12223;42.650;23.364;2022-11-14T01:16:37;27.10;;;19.17;;
11098;SDS011;12223;42.650;23.364;2022-11-14T01:19:03;27.67;;;20.87;;
11098;SDS011;12223;42.650;23.364;2022-11-14T01:21:30;27.07;;;23.30;;
11098;SDS011;12223;42.650;23.364;2022-11-14T01:23:57;36.53;;;33.33;;
11098;SDS011;12223;42.650;23.364;2022-11-14T01:26:24;29.73;;;26.77;;
11098;SDS011;12223;42.650;23.364;2022-11-14T01:28:51;27.10;;;22.03;;
11098;SDS011;12223;42.650;23.364;2022-11-14T01:31:19;28.00;;;24.73;;
11098;SDS011;12223;42.650;23.364;2022-11-14T01:33:49;33.30;;;27.73;;
11098;SDS011;12223;42.650;23.364;2022-11-14T01:36:16;34.50;;;30.90;;
11098;SDS011;12223;42.650;23.364;2022-11-14T01:38:43;30.67;;;27.17;;
11098;SDS011;12223;42.650;23.364;2022-11-14T01:41:11;33.00;;;22.50;;
11098;SDS011;12223;42.650;23.364;2022-11-14T01:43:39;30.67;;;21.67;;
11098;SDS011;12223;42.650;23.364;2022-11-14T01:46:07;26.83;;;23.87;;
11098;SDS011;12223;42.650;23.364;2022-11-14T01:48:39;30.33;;;22.10;;
11098;SDS011;12223;42.650;23.364;2022-11-14T01:51:14;28.43;;;20.97;;
11098;SDS011;12223;42.650;23.364;2022-11-14T01:53:45;30.13;;;22.07;;
11098;SDS011;12223;42.650;23.364;2022-11-14T01:56:14;32.53;;;27.13;;
11098;SDS011;12223;42.650;23.364;2022-11-14T01:58:45;29.43;;;20.80;;
11098;SDS011;12223;42.650;23.364;2022-11-14T02:01:17;28.03;;;22.37;;
11098;SDS011;12223;42.650;23.364;2022-11-14T02:03:44;29.10;;;24.53;;
11098;SDS011;12223;42.650;23.364;2022-11-14T02:06:17;31.77;;;22.57;;
11098;SDS011;12223;42.650;23.364;2022-11-14T02:08:46;30.47;;;23.70;;
11098;SDS011;12223;42.650;23.364;2022-11-14T02:11:13;31.30;;;23.13;;
11098;SDS011;12223;42.650;23.364;2022-11-14T02:13:40;29.63;;;22.80;;
11098;SDS011;12223;42.650;23.364;2022-11-14T02:16:07;25.93;;;21.43;;
11098;SDS011;12223;42.650;23.364;2022-11-14T02:18:34;28.57;;;21.80;;
11098;SDS011;12223;42.650;23.364;2022-11-14T02:21:02;28.57;;;22.53;;
11098;SDS011;12223;42.650;23.364;2022-11-14T02:23:30;30.60;;;21.63;;
11098;SDS011;12223;42.650;23.364;2022-11-14T02:25:58;33.43;;;24.07;;
11098;SDS011;12223;42.650;23.364;2022-11-14T02:28:25;27.80;;;21.10;;
11098;SDS011;12223;42.650;23.364;2022-11-14T02:30:52;29.17;;;21.70;;
11098;SDS011;12223;42.650;23.364;2022-11-14T02:33:19;26.40;;;22.77;;
11098;SDS011;12223;42.650;23.364;2022-11-14T02:35:46;32.40;;;27.17;;
11098;SDS011;12223;42.650;23.364;2022-11-14T02:38:14;38.97;;;26.40;;
11098;SDS011;12223;42.650;23.364;2022-11-14T02:40:41;29.87;;;24.53;;
11098;SDS011;12223;42.650;23.364;2022-11-14T02:43:08;28.40;;;22.90;;
11098;SDS011;12223;42.650;23.364;2022-11-14T02:45:34;31.00;;;23.20;;
11098;SDS011;12223;42.650;23.364;2022-11-14T02:48:01;26.37;;;21.70;;
11098;SDS011;12223;42.650;23.364;2022-11-14T02:50:28;27.83;;;22.90;;
11098;SDS011;12223;42.650;23.364;2022-11-14T02:52:55;29.97;;;23.07;;
11098;SDS011;12223;42.650;23.364;2022-11-14T02:55:23;30.20;;;22.83;;
11098;SDS011;12223;42.650;23.364;2022-11-14T02:57:50;34.13;;;25.13;;
11098;SDS011;12223;42.650;23.364;2022-11-14T03:00:17;31.97;;;27.67;;
11098;SDS011;12223;42.650;23.364;2022-11-14T03:02:44;36.83;;;30.57;;
11098;SDS011;12223;42.650;23.364;2022-11-14T03:05:11;40.13;;;27.27;;
11098;SDS011;12223;42.650;23.364;2022-11-14T03:07:38;35.97;;;26.90;;
11098;SDS011;12223;42.650;23.364;2022-11-14T03:10:05;31.23;;;23.63;;
11098;SDS011;12223;42.650;23.364;2022-11-14T03:12:35;31.27;;;22.97;;
11098;SDS011;12223;42.650;23.364;2022-11-14T03:15:01;28.40;;;21.27;;
11098;SDS011;12223;42.650;23.364;2022-11-14T03:17:29;30.83;;;22.60;;
11098;SDS011;12223;42.650;23.364;2022-11-14T03:19:57;43.37;;;27.43;;
11098;SDS011;12223;42.650;23.364;2022-11-14T03:22:24;102.20;;;56.83;;
11098;SDS011;12223;42.650;23.364;2022-11-14T03:24:51;77.50;;;35.93;;
11098;SDS011;12223;42.650;23.364;2022-11-14T03:27:18;69.63;;;36.17;;
11098;SDS011;12223;42.650;23.364;2022-11-14T03:29:46;65.67;;;38.50;;
11098;SDS011;12223;42.650;23.364;2022-11-14T03:32:13;53.23;;;37.83;;
11098;SDS011;12223;42.650;23.364;2022-11-14T03:34:40;53.27;;;29.17;;
11098;SDS011;12223;42.650;23.364;2022-11-14T03:37:07;77.80;;;30.80;;
11098;SDS011;12223;42.650;23.364;2022-11-14T03:39:34;58.53;;;35.87;;
11098;SDS011;12223;42.650;23.364;2022-11-14T03:42:01;81.33;;;35.97;;
11098;SDS011;12223;42.650;23.364;2022-11-14T03:44:27;81.70;;;45.93;;
11098;SDS011;12223;42.650;23.364;2022-11-14T03:46:56;82.57;;;34.07;;
11098;SDS011;12223;42.650;23.364;2022-11-14T03:49:23;67.77;;;45.97;;
11098;SDS011;12223;42.650;23.364;2022-11-14T03:51:49;104.70;;;68.20;;
11098;SDS011;12223;42.650;23.364;2022-11-14T03:54:16;110.33;;;56.87;;
11098;SDS011;12223;42.650;23.364;2022-11-14T03:56:43;165.17;;;61.07;;
11098;SDS011;12223;42.650;23.364;2022-11-14T03:59:10;142.73;;;71.87;;
11098;SDS011;12223;42.650;23.364;2022-11-14T04:01:36;150.10;;;67.50;;
11098;SDS011;12223;42.650;23.364;2022-11-14T04:04:04;81.97;;;73.17;;
11098;SDS011;12223;42.650;23.364;2022-11-14T04:06:31;124.77;;;56.50;;
11098;SDS011;12223;42.650;23.364;2022-11-14T04:08:58;132.23;;;52.07;;
11098;SDS011;12223;42.650;23.364;2022-11-14T04:11:25;87.23;;;47.83;;
11098;SDS011;12223;42.650;23.364;2022-11-14T04:13:52;75.33;;;45.63;;
11098;SDS011;12223;42.650;23.364;2022-11-14T04:16:19;62.97;;;40.27;;
11098;SDS011;12223;42.650;23.364;2022-11-14T04:18:45;87.00;;;49.33;;
11098;SDS011;12223;42.650;23.364;2022-11-14T04:21:14;182.57;;;120.00;;
11098;SDS011;12223;42.650;23.364;2022-11-14T04:23:40;159.00;;;86.97;;
11098;SDS011;12223;42.650;23.364;2022-11-14T04:26:07;103.67;;;71.33;;
11098;SDS011;12223;42.650;23.364;2022-11-14T04:28:34;105.43;;;55.07;;
11098;SDS011;12223;42.650;23.364;2022-11-14T04:31:01;117.27;;;54.93;;
11098;SDS011;12223;42.650;23.364;2022-11-14T04:33:27;105.57;;;61.90;;
11098;SDS011;12223;42.650;23.364;2022-11-14T04:35:54;104.13;;;52.83;;
11098;SDS011;12223;42.650;23.364;2022-11-14T04:38:22;89.37;;;46.23;;
11098;SDS011;12223;42.650;23.364;2022-11-14T04:40:49;92.03;;;45.40;;
11098;SDS011;12223;42.650;23.364;2022-11-14T04:43:17;76.30;;;53.10;;
11098;SDS011;12223;42.650;23.364;2022-11-14T04:45:45;65.67;;;49.80;;
11098;SDS011;12223;42.650;23.364;2022-11-14T04:48:12;97.77;;;87.07;;
11098;SDS011;12223;42.650;23.364;2022-11-14T04:50:39;74.33;;;63.40;;
11098;SDS011;12223;42.650;23.364;2022-11-14T04:53:06;79.53;;;48.67;;
11098;SDS011;12223;42.650;23.364;2022-11-14T04:55:34;68.93;;;52.50;;
11098;SDS011;12223;42.650;23.364;2022-11-14T04:58:01;81.70;;;55.57;;
11098;SDS011;12223;42.650;23.364;2022-11-14T05:00:30;85.13;;;72.87;;
11098;SDS011;12223;42.650;23.364;2022-11-14T05:02:58;69.63;;;57.40;;
11098;SDS011;12223;42.650;23.364;2022-11-14T05:05:25;58.33;;;39.37;;
11098;SDS011;12223;42.650;23.364;2022-11-14T05:07:52;53.33;;;38.53;;
11098;SDS011;12223;42.650;23.364;2022-11-14T05:10:20;53.67;;;35.17;;
11098;SDS011;12223;42.650;23.364;2022-11-14T05:12:48;51.23;;;32.73;;
11098;SDS011;12223;42.650;23.364;2022-11-14T05:15:19;55.17;;;32.97;;
11098;SDS011;12223;42.650;23.364;2022-11-14T05:17:46;45.43;;;37.53;;
11098;SDS011;12223;42.650;23.364;2022-11-14T05:20:15;49.67;;;44.73;;
11098;SDS011;12223;42.650;23.364;2022-11-14T05:22:42;58.40;;;44.70;;
11098;SDS011;12223;42.650;23.364;2022-11-14T05:25:09;107.97;;;96.57;;
11098;SDS011;12223;42.650;23.364;2022-11-14T05:27:36;99.73;;;44.77;;
11098;SDS011;12223;42.650;23.364;2022-11-14T05:30:08;139.07;;;40.90;;
11098;SDS011;12223;42.650;23.364;2022-11-14T05:32:36;118.23;;;63.77;;
11098;SDS011;12223;42.650;23.364;2022-11-14T05:35:03;123.77;;;56.67;;
11098;SDS011;12223;42.650;23.364;2022-11-14T05:37:33;132.90;;;123.80;;
11098;SDS011;12223;42.650;23.364;2022-11-14T05:40:02;223.17;;;209.10;;
11098;SDS011;12223;42.650;23.364;2022-11-14T05:42:30;87.57;;;80.87;;
11098;SDS011;12223;42.650;23.364;2022-11-14T05:44:57;73.13;;;67.00;;
11098;SDS011;12223;42.650;23.364;2022-11-14T05:47:26;55.53;;;49.33;;
11098;SDS011;12223;42.650;23.364;2022-11-14T05:49:53;51.57;;;37.47;;
11098;SDS011;12223;42.650;23.364;2022-11-14T05:52:20;123.60;;;114.10;;
11098;SDS011;12223;42.650;23.364;2022-11-14T05:54:48;103.50;;;94.47;;
11098;SDS011;12223;42.650;23.364;2022-11-14T05:57:15;69.37;;;62.83;;
11098;SDS011;12223;42.650;23.364;2022-11-14T05:59:42;54.83;;;48.93;;
11098;SDS011;12223;42.650;23.364;2022-11-14T06:02:09;88.00;;;81.17;;
11098;SDS011;12223;42.650;23.364;2022-11-14T06:04:37;63.67;;;57.90;;
11098;SDS011;12223;42.650;23.364;2022-11-14T06:07:06;60.67;;;55.07;;
11098;SDS011;12223;42.650;23.364;2022-11-14T06:09:33;58.83;;;52.83;;
11098;SDS011;12223;42.650;23.364;2022-11-14T06:12:00;48.30;;;34.40;;
11098;SDS011;12223;42.650;23.364;2022-11-14T06:14:30;43.53;;;34.63;;
11098;SDS011;12223;42.650;23.364;2022-11-14T06:16:57;45.97;;;34.17;;
11098;SDS011;12223;42.650;23.364;2022-11-14T06:19:24;52.13;;;46.80;;
11098;SDS011;12223;42.650;23.364;2022-11-14T06:21:52;52.67;;;47.53;;
11098;SDS011;12223;42.650;23.364;2022-11-14T06:24:19;54.07;;;48.53;;
11098;SDS011;12223;42.650;23.364;2022-11-14T06:26:45;59.90;;;54.37;;
11098;SDS011;12223;42.650;23.364;2022-11-14T06:29:13;54.50;;;49.10;;
11098;SDS011;12223;42.650;23.364;2022-11-14T06:31:39;47.43;;;30.37;;
11098;SDS011;12223;42.650;23.364;2022-11-14T06:34:06;38.47;;;26.57;;
11098;SDS011;12223;42.650;23.364;2022-11-14T06:36:33;42.40;;;30.63;;
11098;SDS011;12223;42.650;23.364;2022-11-14T06:39:01;38.27;;;28.87;;
11098;SDS011;12223;42.650;23.364;2022-11-14T06:41:28;42.67;;;36.43;;
11098;SDS011;12223;42.650;23.364;2022-11-14T06:43:55;40.37;;;29.23;;
11098;SDS011;12223;42.650;23.364;2022-11-14T06:46:22;46.63;;;36.13;;
11098;SDS011;12223;42.650;23.364;2022-11-14T06:48:49;42.50;;;38.13;;
11098;SDS011;12223;42.650;23.364;2022-11-14T06:51:16;46.57;;;42.13;;
11098;SDS011;12223;42.650;23.364;2022-11-14T06:53:44;38.87;;;27.77;;
11098;SDS011;12223;42.650;23.364;2022-11-14T06:56:13;32.97;;;23.10;;
11098;SDS011;12223;42.650;23.364;2022-11-14T06:58:42;33.90;;;24.17;;
11098;SDS011;12223;42.650;23.364;2022-11-14T07:01:11;43.90;;;39.73;;
11098;SDS011;12223;42.650;23.364;2022-11-14T07:03:39;31.53;;;24.93;;
11098;SDS011;12223;42.650;23.364;2022-11-14T07:06:07;30.67;;;24.80;;
11098;SDS011;12223;42.650;23.364;2022-11-14T07:08:34;26.73;;;20.20;;
11098;SDS011;12223;42.650;23.364;2022-11-14T07:11:01;53.63;;;49.10;;
11098;SDS011;12223;42.650;23.364;2022-11-14T07:13:31;37.50;;;30.33;;
11098;SDS011;12223;42.650;23.364;2022-11-14T07:15:58;38.07;;;34.40;;
11098;SDS011;12223;42.650;23.364;2022-11-14T07:18:26;33.07;;;29.67;;
11098;SDS011;12223;42.650;23.364;2022-11-14T07:20:58;41.70;;;37.50;;
11098;SDS011;12223;42.650;23.364;2022-11-14T07:23:27;25.03;;;20.30;;
11098;SDS011;12223;42.650;23.364;2022-11-14T07:25:54;28.23;;;21.83;;
11098;SDS011;12223;42.650;23.364;2022-11-14T07:28:21;31.70;;;28.13;;
11098;SDS011;12223;42.650;23.364;2022-11-14T07:30:49;31.43;;;23.20;;
11098;SDS011;12223;42.650;23.364;2022-11-14T07:33:16;30.57;;;24.50;;
11098;SDS011;12223;42.650;23.364;2022-11-14T07:35:43;61.63;;;57.07;;
11098;SDS011;12223;42.650;23.364;2022-11-14T07:38:17;33.17;;;23.87;;
11098;SDS011;12223;42.650;23.364;2022-11-14T07:40:51;30.00;;;22.77;;
11098;SDS011;12223;42.650;23.364;2022-11-14T07:43:19;29.43;;;22.60;;
11098;SDS011;12223;42.650;23.364;2022-11-14T07:45:46;32.60;;;26.30;;
11098;SDS011;12223;42.650;23.364;2022-11-14T07:48:15;30.30;;;23.13;;
11098;SDS011;12223;42.650;23.364;2022-11-14T07:50:43;31.60;;;24.90;;
11098;SDS011;12223;42.650;23.364;2022-11-14T07:53:11;32.43;;;24.30;;
11098;SDS011;12223;42.650;23.364;2022-11-14T07:55:39;32.33;;;24.80;;
11098;SDS011;12223;42.650;23.364;2022-11-14T07:58:07;42.37;;;38.53;;
11098;SDS011;12223;42.650;23.364;2022-11-14T08:00:34;50.07;;;45.93;;
11098;SDS011;12223;42.650;23.364;2022-11-14T08:03:05;41.80;;;37.70;;
11098;SDS011;12223;42.650;23.364;2022-11-14T08:05:34;59.73;;;54.77;;
11098;SDS011;12223;42.650;23.364;2022-11-14T08:08:01;29.37;;;25.10;;
11098;SDS011;12223;42.650;23.364;2022-11-14T08:10:31;32.80;;;23.80;;
11098;SDS011;12223;42.650;23.364;2022-11-14T08:13:02;36.03;;;32.23;;
11098;SDS011;12223;42.650;23.364;2022-11-14T08:15:32;33.17;;;29.63;;
11098;SDS011;12223;42.650;23.364;2022-11-14T08:17:59;34.07;;;28.57;;
11098;SDS011;12223;42.650;23.364;2022-11-14T08:20:29;29.67;;;25.07;;
11098;SDS011;12223;42.650;23.364;2022-11-14T08:23:02;37.07;;;30.33;;
11098;SDS011;12223;42.650;23.364;2022-11-14T08:25:29;51.40;;;46.27;;
11098;SDS011;12223;42.650;23.364;2022-11-14T08:27:56;37.53;;;33.90;;
11098;SDS011;12223;42.650;23.364;2022-11-14T08:30:23;35.73;;;28.87;;
11098;SDS011;12223;42.650;23.364;2022-11-14T08:32:49;37.07;;;31.93;;
11098;SDS011;12223;42.650;23.364;2022-11-14T08:35:16;39.50;;;35.53;;
11098;SDS011;12223;42.650;23.364;2022-11-14T08:40:27;35.10;;;27.70;;
11098;SDS011;12223;42.650;23.364;2022-11-14T08:42:57;32.13;;;28.07;;
11098;SDS011;12223;42.650;23.364;2022-11-14T08:45:24;31.17;;;25.13;;
11098;SDS011;12223;42.650;23.364;2022-11-14T08:47:51;37.70;;;29.50;;
11098;SDS011;12223;42.650;23.364;2022-11-14T08:50:18;40.20;;;35.47;;
11098;SDS011;12223;42.650;23.364;2022-11-14T08:52:48;39.40;;;35.43;;
11098;SDS011;12223;42.650;23.364;2022-11-14T08:55:16;40.63;;;31.23;;
11098;SDS011;12223;42.650;23.364;2022-11-14T08:57:47;36.87;;;32.83;;
11098;SDS011;12223;42.650;23.364;2022-11-14T09:00:14;34.33;;;26.40;;
11098;SDS011;12223;42.650;23.364;2022-11-14T09:02:41;35.73;;;27.13;;
11098;SDS011;12223;42.650;23.364;2022-11-14T09:05:08;35.80;;;27.40;;
11098;SDS011;12223;42.650;23.364;2022-11-14T09:07:35;34.33;;;29.80;;
11098;SDS011;12223;42.650;23.364;2022-11-14T09:10:02;33.33;;;28.50;;
11098;SDS011;12223;42.650;23.364;2022-11-14T09:12:30;36.77;;;30.53;;
11098;SDS011;12223;42.650;23.364;2022-11-14T09:14:59;33.03;;;27.73;;
11098;SDS011;12223;42.650;23.364;2022-11-14T09:17:26;36.47;;;32.67;;
11098;SDS011;12223;42.650;23.364;2022-11-14T09:19:53;72.00;;;67.07;;
11098;SDS011;12223;42.650;23.364;2022-11-14T09:22:20;38.13;;;32.00;;
11098;SDS011;12223;42.650;23.364;2022-11-14T09:24:46;31.07;;;24.43;;
11098;SDS011;12223;42.650;23.364;2022-11-14T09:27:13;63.97;;;59.00;;
11098;SDS011;12223;42.650;23.364;2022-11-14T09:29:41;69.37;;;63.97;;
11098;SDS011;12223;42.650;23.364;2022-11-14T09:32:17;40.07;;;32.73;;
11098;SDS011;12223;42.650;23.364;2022-11-14T09:34:43;36.50;;;30.50;;
11098;SDS011;12223;42.650;23.364;2022-11-14T09:37:12;37.07;;;30.53;;
11098;SDS011;12223;42.650;23.364;2022-11-14T09:39:38;40.40;;;35.27;;
11098;SDS011;12223;42.650;23.364;2022-11-14T09:42:11;46.93;;;42.07;;
11098;SDS011;12223;42.650;23.364;2022-11-14T09:44:48;40.13;;;28.83;;
11098;SDS011;12223;42.650;23.364;2022-11-14T09:47:23;102.47;;;95.47;;
11098;SDS011;12223;42.650;23.364;2022-11-14T09:49:54;150.67;;;142.17;;
11098;SDS011;12223;42.650;23.364;2022-11-14T09:52:30;37.77;;;33.53;;
11098;SDS011;12223;42.650;23.364;2022-11-14T09:55:02;34.77;;;30.03;;
11098;SDS011;12223;42.650;23.364;2022-11-14T09:57:35;101.30;;;94.80;;
11098;SDS011;12223;42.650;23.364;2022-11-14T10:00:03;107.97;;;101.20;;
11098;SDS011;12223;42.650;23.364;2022-11-14T10:02:40;132.77;;;125.27;;
11098;SDS011;12223;42.650;23.364;2022-11-14T10:05:21;47.80;;;43.13;;
11098;SDS011;12223;42.650;23.364;2022-11-14T10:08:05;34.37;;;28.10;;
11098;SDS011;12223;42.650;23.364;2022-11-14T10:10:44;31.80;;;25.33;;
11098;SDS011;12223;42.650;23.364;2022-11-14T10:13:20;34.83;;;27.93;;
11098;SDS011;12223;42.650;23.364;2022-11-14T10:15:57;41.53;;;32.03;;
11098;SDS011;12223;42.650;23.364;2022-11-14T10:18:37;54.90;;;50.47;;
11098;SDS011;12223;42.650;23.364;2022-11-14T10:21:29;37.63;;;33.40;;
11098;SDS011;12223;42.650;23.364;2022-11-14T10:24:19;40.27;;;28.47;;
11098;SDS011;12223;42.650;23.364;2022-11-14T10:26:58;128.10;;;120.57;;
11098;SDS011;12223;42.650;23.364;2022-11-14T10:29:35;74.43;;;68.97;;
11098;SDS011;12223;42.650;23.364;2022-11-14T10:32:13;145.77;;;137.17;;
11098;SDS011;12223;42.650;23.364;2022-11-14T10:34:55;80.27;;;74.13;;
11098;SDS011;12223;42.650;23.364;2022-11-14T10:37:26;59.67;;;54.73;;
11098;SDS011;12223;42.650;23.364;2022-11-14T10:40:01;43.17;;;38.77;;
11098;SDS011;12223;42.650;23.364;2022-11-14T10:42:39;36.40;;;30.07;;
11098;SDS011;12223;42.650;23.364;2022-11-14T10:45:13;37.37;;;33.20;;
11098;SDS011;12223;42.650;23.364;2022-11-14T10:47:45;39.97;;;29.83;;
11098;SDS011;12223;42.650;23.364;2022-11-14T10:50:18;37.13;;;33.13;;
11098;SDS011;12223;42.650;23.364;2022-11-14T10:52:48;42.57;;;38.27;;
11098;SDS011;12223;42.650;23.364;2022-11-14T10:55:20;42.87;;;33.37;;
11098;SDS011;12223;42.650;23.364;2022-11-14T10:57:48;42.17;;;29.80;;
11098;SDS011;12223;42.650;23.364;2022-11-14T11:00:16;37.53;;;28.30;;
11098;SDS011;12223;42.650;23.364;2022-11-14T11:02:46;40.73;;;33.07;;
11098;SDS011;12223;42.650;23.364;2022-11-14T11:05:16;42.30;;;38.10;;
11098;SDS011;12223;42.650;23.364;2022-11-14T11:07:46;44.37;;;29.40;;
11098;SDS011;12223;42.650;23.364;2022-11-14T11:10:32;36.53;;;28.03;;
11098;SDS011;12223;42.650;23.364;2022-11-14T11:13:28;35.63;;;27.83;;
11098;SDS011;12223;42.650;23.364;2022-11-14T11:15:57;36.37;;;26.47;;
11098;SDS011;12223;42.650;23.364;2022-11-14T11:18:26;40.53;;;27.40;;
11098;SDS011;12223;42.650;23.364;2022-11-14T11:21:06;39.07;;;30.67;;
11098;SDS011;12223;42.650;23.364;2022-11-14T11:23:34;53.47;;;48.87;;
11098;SDS011;12223;42.650;23.364;2022-11-14T11:26:02;52.50;;;47.80;;
11098;SDS011;12223;42.650;23.364;2022-11-14T11:28:32;40.93;;;36.90;;
11098;SDS011;12223;42.650;23.364;2022-11-14T11:31:00;39.03;;;34.50;;
11098;SDS011;12223;42.650;23.364;2022-11-14T11:33:29;39.77;;;31.30;;
11098;SDS011;12223;42.650;23.364;2022-11-14T11:35:58;37.10;;;30.73;;
11098;SDS011;12223;42.650;23.364;2022-11-14T11:38:29;37.63;;;29.97;;
11098;SDS011;12223;42.650;23.364;2022-11-14T11:40:59;43.17;;;31.90;;
11098;SDS011;12223;42.650;23.364;2022-11-14T11:43:33;46.50;;;32.20;;
11098;SDS011;12223;42.650;23.364;2022-11-14T11:46:05;42.70;;;31.03;;
11098;SDS011;12223;42.650;23.364;2022-11-14T11:48:37;40.50;;;30.67;;
11098;SDS011;12223;42.650;23.364;2022-11-14T11:51:08;39.27;;;29.77;;
11098;SDS011;12223;42.650;23.364;2022-11-14T11:53:41;43.47;;;30.27;;
11098;SDS011;12223;42.650;23.364;2022-11-14T11:56:12;39.70;;;32.17;;
11098;SDS011;12223;42.650;23.364;2022-11-14T11:58:43;40.90;;;31.33;;
11098;SDS011;12223;42.650;23.364;2022-11-14T12:01:13;44.20;;;37.03;;
11098;SDS011;12223;42.650;23.364;2022-11-14T12:03:41;44.60;;;34.40;;
11098;SDS011;12223;42.650;23.364;2022-11-14T12:06:14;43.47;;;33.80;;
11098;SDS011;12223;42.650;23.364;2022-11-14T12:08:53;40.17;;;28.60;;
11098;SDS011;12223;42.650;23.364;2022-11-14T12:11:29;39.13;;;29.87;;
11098;SDS011;12223;42.650;23.364;2022-11-14T12:17:15;43.83;;;31.23;;
11098;SDS011;12223;42.650;23.364;2022-11-14T12:20:02;45.53;;;31.70;;
11098;SDS011;12223;42.650;23.364;2022-11-14T12:22:54;43.50;;;33.23;;
11098;SDS011;12223;42.650;23.364;2022-11-14T12:25:46;45.10;;;36.53;;
11098;SDS011;12223;42.650;23.364;2022-11-14T12:28:26;44.70;;;35.63;;
11098;SDS011;12223;42.650;23.364;2022-11-14T12:31:09;42.93;;;33.83;;
11098;SDS011;12223;42.650;23.364;2022-11-14T12:33:42;44.67;;;35.83;;
11098;SDS011;12223;42.650;23.364;2022-11-14T12:36:14;41.03;;;31.23;;
11098;SDS011;12223;42.650;23.364;2022-11-14T12:38:42;40.00;;;28.73;;
11098;SDS011;12223;42.650;23.364;2022-11-14T12:41:12;46.57;;;32.37;;
11098;SDS011;12223;42.650;23.364;2022-11-14T12:43:49;38.97;;;31.03;;
11098;SDS011;12223;42.650;23.364;2022-11-14T12:46:16;43.17;;;36.23;;
11098;SDS011;12223;42.650;23.364;2022-11-14T12:48:43;42.30;;;35.23;;
11098;SDS011;12223;42.650;23.364;2022-11-14T12:57:13;42.47;;;32.87;;
11098;SDS011;12223;42.650;23.364;2022-11-14T13:00:06;48.10;;;30.40;;
11098;SDS011;12223;42.650;23.364;2022-11-14T13:02:39;45.10;;;34.87;;
11098;SDS011;12223;42.650;23.364;2022-11-14T13:05:28;95.57;;;88.83;;
11098;SDS011;12223;42.650;23.364;2022-11-14T13:08:08;101.67;;;94.57;;
11098;SDS011;12223;42.650;23.364;2022-11-14T13:10:50;102.07;;;94.73;;
11098;SDS011;12223;42.650;23.364;2022-11-14T13:13:19;62.73;;;57.40;;
11098;SDS011;12223;42.650;23.364;2022-11-14T13:16:03;56.47;;;51.03;;
11098;SDS011;12223;42.650;23.364;2022-11-14T13:18:51;48.40;;;43.27;;
11098;SDS011;12223;42.650;23.364;2022-11-14T13:21:38;58.30;;;52.73;;
11098;SDS011;12223;42.650;23.364;2022-11-14T13:27:43;142.13;;;132.97;;
11098;SDS011;12223;42.650;23.364;2022-11-14T13:30:11;174.27;;;164.47;;
11098;SDS011;12223;42.650;23.364;2022-11-14T13:32:51;111.20;;;103.93;;
11098;SDS011;12223;42.650;23.364;2022-11-14T13:35:20;76.20;;;70.10;;
11098;SDS011;12223;42.650;23.364;2022-11-14T13:38:10;49.17;;;43.57;;
11098;SDS011;12223;42.650;23.364;2022-11-14T13:41:03;47.33;;;37.53;;
11098;SDS011;12223;42.650;23.364;2022-11-14T13:43:47;75.87;;;69.60;;
11098;SDS011;12223;42.650;23.364;2022-11-14T13:46:31;59.27;;;53.43;;
11098;SDS011;12223;42.650;23.364;2022-11-14T13:49:13;105.93;;;98.63;;
11098;SDS011;12223;42.650;23.364;2022-11-14T13:51:54;57.30;;;48.73;;
11098;SDS011;12223;42.650;23.364;2022-11-14T13:54:21;52.80;;;39.33;;
11098;SDS011;12223;42.650;23.364;2022-11-14T13:56:51;65.43;;;59.47;;
11098;SDS011;12223;42.650;23.364;2022-11-14T13:59:31;50.80;;;45.40;;
11098;SDS011;12223;42.650;23.364;2022-11-14T14:08:18;49.67;;;38.10;;
11098;SDS011;12223;42.650;23.364;2022-11-14T14:11:01;52.07;;;44.13;;
11098;SDS011;12223;42.650;23.364;2022-11-14T14:13:43;102.27;;;94.47;;
11098;SDS011;12223;42.650;23.364;2022-11-14T14:16:21;70.90;;;64.03;;
11098;SDS011;12223;42.650;23.364;2022-11-14T14:19:01;54.43;;;47.17;;
11098;SDS011;12223;42.650;23.364;2022-11-14T14:21:38;52.57;;;38.63;;
11098;SDS011;12223;42.650;23.364;2022-11-14T14:24:13;53.20;;;35.50;;
11098;SDS011;12223;42.650;23.364;2022-11-14T14:26:55;56.47;;;39.37;;
11098;SDS011;12223;42.650;23.364;2022-11-14T14:29:32;51.90;;;35.97;;
11098;SDS011;12223;42.650;23.364;2022-11-14T14:32:09;65.27;;;58.60;;
11098;SDS011;12223;42.650;23.364;2022-11-14T14:34:37;61.17;;;39.47;;
11098;SDS011;12223;42.650;23.364;2022-11-14T14:37:13;59.77;;;52.73;;
11098;SDS011;12223;42.650;23.364;2022-11-14T14:39:53;62.90;;;46.03;;
11098;SDS011;12223;42.650;23.364;2022-11-14T14:42:22;57.40;;;47.53;;
11098;SDS011;12223;42.650;23.364;2022-11-14T14:44:50;73.87;;;65.30;;